Home > Products > Valid Products > TAF

000
FTUS44 KMEG 231100
TAFTUP
TAF
KTUP 231120Z 2312/2412 22004KT P6SM SKC
     FM231800 18005KT P6SM VCTS SCT050CB
     FM240100 21004KT P6SM SCT040 BKN080
     FM240700 34003KT 5SM BR SCT050 BKN200=



000
FTUS44 KMEG 231100
TAFMKL
TAF
KMKL 231120Z 2312/2412 00000KT 2SM BR SKC
     FM231300 22006KT P6SM SKC
     FM232000 25006KT P6SM VCSH SCT050 BKN250
     FM240200 02007KT P6SM SCT050 SCT200
     FM240500 34004KT 3SM BR FEW250=



000
FTUS44 KMEG 231100
TAFMEM
TAF
KMEM 231120Z 2312/2412 00000KT P6SM FEW040 SCT250
     FM231400 24004KT P6SM SCT050
     FM231800 25007KT P6SM SCT050 BKN250
     FM240200 02007KT P6SM SCT200=



000
FTUS44 KMEG 231100
TAFJBR
TAF
KJBR 231120Z 2312/2412 27003KT P6SM SKC
     FM232100 25007KT P6SM VCSH SCT050 BKN200
     FM240100 02007KT P6SM SCT040 BKN080=



000
FTUS44 KMEG 230800 AAA
TAFMEM
TAF AMD
KMEM 230850Z 2309/2406 00000KT P6SM FEW040 SCT250
     FM231400 24004KT P6SM SCT050
     FM231800 25005KT P6SM SCT050 BKN250=



000
FTUS44 KMEG 230500
TAFMEM
TAF
KMEM 230532Z 2306/2406 00000KT P6SM FEW040 SCT250
     FM231400 24004KT P6SM SCT050
     FM231800 25005KT P6SM SCT050 BKN250=



000
FTUS44 KMEG 230500
TAFJBR
TAF
KJBR 230532Z 2306/2406 00000KT P6SM SKC
     FM231100 00000KT 5SM BR SKC
     FM231300 24005KT P6SM SKC
     FM231800 25005KT P6SM SCT050
     FM240200 35005KT P6SM SKC=



000
FTUS44 KMEG 230500
TAFTUP
TAF
KTUP 230532Z 2306/2406 00000KT P6SM BKN250
     FM230800 00000KT 3SM BR SKC
     FM231300 VRB03KT P6SM SKC
     FM231800 18005KT P6SM SCT050=



000
FTUS44 KMEG 230500
TAFMKL
TAF
KMKL 230532Z 2306/2406 00000KT P6SM SCT040
     FM230800 00000KT 4SM BR SKC
     FM231000 00000KT 2SM BR SKC
     FM231400 VRB03KT P6SM SKC
     FM231900 25005KT P6SM SCT050 BKN250=



000
FTUS44 KMEG 230200 AAA
TAFMEM
TAF AMD
KMEM 230259Z 2303/2324 VRB03KT P6SM FEW250
     FM231300 VRB04KT P6SM SCT050
     FM231800 25005KT P6SM SCT050 BKN250=



000
FTUS44 KMEG 222300
TAFMKL
TAF
KMKL 222330Z 2300/2324 VRB03KT P6SM SKC
     FM230600 00000KT 4SM BR SKC
     FM231000 00000KT 2SM BR SKC
     FM231400 VRB03KT P6SM SKC
     FM231900 25005KT P6SM SCT050 BKN250=



000
FTUS44 KMEG 222300
TAFTUP
TAF
KTUP 222330Z 2300/2324 17004KT P6SM VCSH SCT035
     FM230100 16004KT P6SM BKN250
     FM230800 00000KT 3SM BR SKC
     FM231300 VRB03KT P6SM SKC
     FM231800 18005KT P6SM SCT050=



000
FTUS44 KMEG 222300
TAFJBR
TAF
KJBR 222330Z 2300/2324 21005KT P6SM SKC
     FM231100 26002KT 5SM BR SKC
     FM231300 24005KT P6SM SKC
     FM231800 25005KT P6SM SCT050=



000
FTUS44 KMEG 222300
TAFMEM
TAF
KMEM 222330Z 2300/2324 32005KT P6SM FEW045
     FM230300 VRB03KT P6SM SKC
     FM231300 VRB04KT P6SM SCT050
     FM231800 25005KT P6SM SCT050 BKN250=



000
FTUS44 KMEG 222000 AAA
TAFMEM
TAF AMD
KMEM 222050Z 2221/2318 VRB04KT P6SM FEW050 SCT250
     FM230100 VRB03KT P6SM SKC
     FM231300 VRB04KT P6SM SKC=



000
FTUS44 KMEG 221700
TAFMEM
TAF
KMEM 221740Z 2218/2318 VRB04KT P6SM FEW040 SCT250
     FM230100 17002KT P6SM SKC
     FM231300 VRB04KT P6SM SKC=



000
FTUS44 KMEG 221700
TAFJBR
TAF
KJBR 221740Z 2218/2318 VRB04KT P6SM FEW040
     FM230000 00000KT P6SM SKC
     FM231100 26002KT 5SM BR SKC
     FM231300 24006KT P6SM SKC=



000
FTUS44 KMEG 221700
TAFMKL
TAF
KMKL 221740Z 2218/2318 VRB03KT P6SM FEW040
     FM230300 00000KT 4SM BR SKC
     FM231000 00000KT 2SM BR SKC
     FM231400 VRB03KT P6SM SKC=



000
FTUS44 KMEG 221700
TAFTUP
TAF
KTUP 221740Z 2218/2318 15008KT P6SM VCSH SCT025 BKN035 OVC050
     FM230100 16004KT P6SM SKC
     FM230600 00000KT 3SM BR SKC
     FM231300 VRB03KT P6SM SKC=



000
FTUS44 KMEG 221400 AAA
TAFMEM
TAF AMD
KMEM 221459Z 2215/2312 05005KT P6SM FEW030 SCT250
     FM230100 10005KT P6SM SCT250
     FM230300 17002KT P6SM SKC=



000
FTUS44 KMEG 221100
TAFTUP
TAF
KTUP 221120Z 2212/2312 02003KT P6SM SKC
     FM221500 15005KT P6SM VCSH SCT030
     FM230000 16004KT P6SM SKC
     FM230300 00000KT 3SM BR SKC=



000
FTUS44 KMEG 221100
TAFJBR
TAF
KJBR 221120Z 2212/2312 00000KT 4SM BR SKC
     FM221300 13005KT P6SM SCT030
     FM230000 00000KT P6SM SKC=



000
FTUS44 KMEG 221100
TAFMEM
TAF
KMEM 221120Z 2212/2312 05005KT P6SM FEW030 SCT250
     FM230100 10003KT P6SM SCT250
     FM230300 17002KT P6SM SKC=



000
FTUS44 KMEG 221100
TAFMKL
TAF
KMKL 221120Z 2212/2312 00000KT 3SM BR SKC
     FM221400 12004KT P6SM SCT030
     FM230300 00000KT 4SM BR BKN050=



000
FTUS44 KMEG 220900 AAA
TAFMEM
TAF AMD
KMEM 220900Z 2209/2306 03002KT P6SM FEW002 SCT250
     FM221100 05005KT P6SM FEW030 SCT250
     FM230100 10003KT P6SM SCT250=



000
FTUS44 KMEG 220500
TAFTUP
TAF
KTUP 220531Z 2206/2306 02003KT P6SM SKC
     FM221500 15005KT P6SM VCSH SCT030
     FM230000 00000KT P6SM SKC=



000
FTUS44 KMEG 220500
TAFMEM
TAF
KMEM 220531Z 2206/2306 03002KT P6SM FEW002 SCT250
     FM221100 05005KT P6SM FEW030 SCT250
     FM230100 10003KT P6SM SCT250=



000
FTUS44 KMEG 220500
TAFJBR
TAF
KJBR 220531Z 2206/2306 00000KT P6SM SKC
     FM221500 13005KT P6SM SCT030
     FM230000 00000KT P6SM SKC=



000
FTUS44 KMEG 220500
TAFMKL
TAF
KMKL 220531Z 2206/2306 00000KT 3SM BR SKC
      TEMPO 2209/2213 1SM BR
     FM221500 VRB03KT P6SM SCT030
     FM230000 00000KT P6SM SKC=



000
FTUS44 KMEG 220200 AAA
TAFMEM
TAF AMD
KMEM 220258Z 2203/2224 01005KT P6SM FEW250
     FM221100 07003KT P6SM SCT030=



000
FTUS44 KMEG 212300
TAFTUP
TAF
KTUP 212330Z 2200/2224 01005KT P6SM SKC
     FM221500 15005KT P6SM VCSH SCT030=



000
FTUS44 KMEG 212300
TAFMEM
TAF
KMEM 212330Z 2200/2224 36005KT P6SM BKN045
     FM220200 02005KT P6SM SKC
     FM221100 07003KT P6SM SCT030=



000
FTUS44 KMEG 212300
TAFMKL
TAF
KMKL 212330Z 2200/2224 00000KT P6SM SCT060
      TEMPO 2209/2212 4SM BR
     FM221500 VRB03KT P6SM SCT030=



000
FTUS44 KMEG 212300
TAFJBR
TAF
KJBR 212330Z 2200/2224 00000KT P6SM SKC
     FM221500 16005KT P6SM SCT030=



000
FTUS44 KMEG 212000 AAA
TAFMEM
TAF AMD
KMEM 212058Z 2121/2218 34005KT P6SM SCT045
     FM220000 05003KT P6SM SKC
     FM221500 07005KT P6SM SCT030=



000
FTUS44 KMEG 211700
TAFJBR
TAF
KJBR 211722Z 2118/2218 10005KT P6SM SCT040
     FM220000 00000KT P6SM SKC
     FM221500 12005KT P6SM SCT030=



000
FTUS44 KMEG 211700
TAFTUP
TAF
KTUP 211722Z 2118/2218 04006KT P6SM SCT040
     FM220000 00000KT P6SM BKN060
     FM221500 14004KT P6SM VCSH FEW030 BKN060=



000
FTUS44 KMEG 211700
TAFMEM
TAF
KMEM 211722Z 2118/2218 02006KT P6SM SCT040
     FM220000 05003KT P6SM SKC
     FM221500 07005KT P6SM SCT030=



000
FTUS44 KMEG 211700
TAFMKL
TAF
KMKL 211722Z 2118/2218 03005KT P6SM SCT040
     FM220000 00000KT P6SM SCT060
      TEMPO 2209/2212 4SM BR
     FM221500 VRB03KT P6SM FEW030 SCT060=



000
FTUS44 KMEG 211500 AAA
TAFMEM
TAF AMD
KMEM 211503Z 2115/2212 05004KT P6SM SCT030
     FM211800 02006KT P6SM SCT040
     FM220000 08003KT P6SM SKC=



000
FTUS44 KMEG 211100
TAFJBR
TAF
KJBR 211131Z 2112/2212 00000KT P6SM SKC
     FM211500 10005KT P6SM SCT040
     FM220000 00000KT P6SM SKC=



000
FTUS44 KMEG 211100
TAFMEM
TAF
KMEM 211131Z 2112/2212 03003KT P6SM SKC
     FM211500 04003KT P6SM SCT025
     FM211800 02006KT P6SM SCT040
     FM220000 08003KT P6SM SKC=



000
FTUS44 KMEG 211100
TAFTUP
TAF
KTUP 211131Z 2112/2212 05003KT 4SM BR SKC
      TEMPO 2112/2113 2SM BR BKN003
     FM211300 03005KT P6SM SCT025
     FM211800 04005KT P6SM SCT040
     FM220000 00000KT P6SM BKN060 BKN250=



000
FTUS44 KMEG 211100
TAFMKL
TAF
KMKL 211131Z 2112/2212 00000KT 3SM BR SKC
      TEMPO 2112/2113 1SM BR BKN003
     FM211300 01003KT P6SM SCT015
     FM211800 01005KT P6SM SCT040
     FM220000 00000KT P6SM SCT060
      TEMPO 2209/2212 4SM BR=



000
FTUS44 KMEG 210800 AAA
TAFMEM
TAF AMD
KMEM 210859Z 2109/2206 00000KT P6SM SKC
      TEMPO 2109/2112 5SM BR
     FM211500 04003KT P6SM SCT025
     FM211800 02006KT P6SM SCT040
     FM220000 07004KT P6SM SKC=



000
FTUS44 KMEG 210600 AAA
TAFMKL
TAF AMD
KMKL 210617Z 2106/2206 00000KT 1SM BR SCT010
      TEMPO 2106/2110 1/4SM FG BKN003
     FM211000 00000KT 1/4SM FG VV002
     FM211300 00000KT 3SM BR SCT015
     FM211500 04003KT P6SM SCT025
     FM211800 03004KT P6SM SCT040
     FM220000 00000KT P6SM SKC=



000
FTUS44 KMEG 210500
TAFTUP
TAF
KTUP 210530Z 2106/2206 00000KT P6SM SKC
      TEMPO 2106/2107 5SM BR
     FM210700 00000KT 3SM BR FEW025
      TEMPO 2109/2113 1/2SM FG BKN003
     FM211500 03005KT P6SM SCT025
     FM211800 04005KT P6SM SCT040
     FM220000 00000KT P6SM SKC=



000
FTUS44 KMEG 210500
TAFMKL
TAF
KMKL 210530Z 2106/2206 00000KT 3SM BR FEW025
      TEMPO 2106/2109 1SM BR
     FM210900 00000KT 2SM BR SCT010
      TEMPO 2109/2113 1/2SM FG BKN003
     FM211300 00000KT 3SM BR SCT015
     FM211500 04003KT P6SM SCT025
     FM211800 03004KT P6SM SCT040
     FM220000 00000KT P6SM SKC=



000
FTUS44 KMEG 210500
TAFMEM
TAF
KMEM 210530Z 2106/2206 06003KT P6SM SKC
      TEMPO 2109/2112 5SM BR
     FM211500 04003KT P6SM SCT025
     FM211800 02006KT P6SM SCT040
     FM220000 07004KT P6SM SKC=



000
FTUS44 KMEG 210500
TAFJBR
TAF
KJBR 210530Z 2106/2206 00000KT P6SM SKC
      TEMPO 2109/2113 5SM BR
     FM211500 10005KT P6SM SCT035
     FM211800 11005KT P6SM SCT040
     FM220000 00000KT P6SM SKC=



000
FTUS44 KMEG 210400 AAA
TAFMKL
TAF AMD
KMKL 210436Z 2105/2124 00000KT 3SM BR FEW025
      TEMPO 2105/2109 1SM BR SCT010
     FM210900 00000KT 2SM BR SCT010
      TEMPO 2109/2113 1/2SM FG BKN003
     FM211300 00000KT 3SM BR SCT015
     FM211500 04003KT P6SM SCT025
     FM211800 03004KT P6SM SCT040=



000
FTUS44 KMEG 210200 AAA
TAFMEM
TAF AMD
KMEM 210258Z 2103/2124 00000KT P6SM SKC
      TEMPO 2109/2112 5SM BR
     FM211500 04003KT P6SM SCT025
     FM211800 02006KT P6SM SCT040=



000
FTUS44 KMEG 202300
TAFJBR
TAF
KJBR 202320Z 2100/2124 08003KT P6SM SCT050
     FM210100 00000KT P6SM SKC
      TEMPO 2109/2113 5SM BR
     FM211500 10005KT P6SM SCT035
     FM211800 11005KT P6SM SCT040=



000
FTUS44 KMEG 202300
TAFMEM
TAF
KMEM 202320Z 2100/2124 36005KT P6SM BKN050
     FM210100 00000KT P6SM SKC
      TEMPO 2109/2112 5SM BR
     FM211500 04003KT P6SM SCT025
     FM211800 02006KT P6SM SCT040=



000
FTUS44 KMEG 202300
TAFTUP
TAF
KTUP 202320Z 2100/2124 00000KT P6SM SCT050 BKN250
     FM210100 00000KT P6SM BKN250
     FM210500 00000KT 3SM BR SCT025
      TEMPO 2109/2113 1/2SM FG BKN003
     FM211500 03005KT P6SM SCT025
     FM211800 04005KT P6SM SCT040=



000
FTUS44 KMEG 202300
TAFMKL
TAF
KMKL 202320Z 2100/2124 32003KT P6SM FEW050
     FM210100 00000KT P6SM SKC
     FM210500 00000KT 3SM BR FEW025
      TEMPO 2109/2113 1/2SM FG BKN003
     FM211500 04003KT P6SM SCT025
     FM211800 03004KT P6SM SCT040=



000
FTUS44 KMEG 202000 AAA
TAFMEM
TAF AMD
KMEM 202054Z 2021/2118 34005KT P6SM SCT040 BKN060
     FM210100 00000KT P6SM FEW025
      TEMPO 2109/2112 5SM BR
     FM211500 04003KT P6SM SCT025=



000
FTUS44 KMEG 201700
TAFJBR
TAF
KJBR 201731Z 2018/2118 10005KT P6SM SCT060
     FM210100 00000KT P6SM SKC
      TEMPO 2109/2113 5SM BR
     FM211500 10005KT P6SM SCT035=



000
FTUS44 KMEG 201700
TAFMKL
TAF
KMKL 201731Z 2018/2118 35005KT P6SM SCT035 BKN060
     FM210100 00000KT P6SM SCT025
     FM210500 00000KT 3SM BR FEW025
      TEMPO 2109/2113 1/2SM FG BKN003
     FM211500 04003KT P6SM SCT025=



000
FTUS44 KMEG 201700
TAFTUP
TAF
KTUP 201731Z 2018/2118 03004KT P6SM SCT035 BKN050
     FM210000 00000KT P6SM SCT025
     FM210500 00000KT 3SM BR SCT025
      TEMPO 2109/2113 1/2SM FG BKN003
     FM211500 03005KT P6SM BKN035=



000
FTUS44 KMEG 201700
TAFMEM
TAF
KMEM 201731Z 2018/2118 34003KT P6SM SCT035 BKN060
     FM210100 00000KT P6SM FEW025
      TEMPO 2109/2112 5SM BR
     FM211500 04003KT P6SM SCT025=



000
FTUS44 KMEG 201500 AAB
TAFMEM
TAF AMD
KMEM 201500Z 2015/2112 00000KT P6SM VCSH SCT015 BKN035
     FM201900 04003KT P6SM SCT025 BKN050
     FM210000 00000KT P6SM SKC
      TEMPO 2109/2112 5SM BR=



000
FTUS44 KMEG 201200 AAA
TAFTUP
TAF AMD
KTUP 201241Z 2013/2112 00000KT 4SM BR BKN002 OVC010
     FM201500 36002KT P6SM BKN015
     FM201600 01005KT P6SM BKN035
     FM210000 00000KT P6SM SCT060
     FM210600 00000KT 4SM BR SKC
      TEMPO 2108/2112 1SM BR BKN005=



000
FTUS44 KMEG 201200 AAA
TAFMEM
TAF AMD
KMEM 201224Z 2012/2112 00000KT 6SM BR BKN060
     FM201500 34005KT P6SM SCT060
     FM210000 00000KT P6SM SKC
      TEMPO 2109/2112 5SM BR=



    US Dept of Commerce
    National Oceanic and Atmospheric Administration
    National Weather Service
    1325 East West Highway
    Silver Spring, MD 20910
    Page Author: NWS Internet Services Team
Disclaimer
Information Quality
Credits
Glossary
Privacy Policy
Freedom of Information Act (FOIA)
About Us
Career Opportunities